sensor_id;sensor_type;location;lat;lon;timestamp;pressure;altitude;pressure_sealevel;temperature;humidity
57990;BME280;58373;51.824;5.564;2023-05-03T00:00:32;102855.25;;;6.03;69.90
57990;BME280;58373;51.824;5.564;2023-05-03T00:02:57;102851.84;;;6.01;70.43
57990;BME280;58373;51.824;5.564;2023-05-03T00:05:24;102850.19;;;6.00;70.39
57990;BME280;58373;51.824;5.564;2023-05-03T00:07:49;102858.84;;;5.97;71.07
57990;BME280;58373;51.824;5.564;2023-05-03T00:10:14;102862.28;;;5.98;70.04
57990;BME280;58373;51.824;5.564;2023-05-03T00:12:40;102858.88;;;5.96;70.35
57990;BME280;58373;51.824;5.564;2023-05-03T00:15:06;102861.44;;;5.96;71.78
57990;BME280;58373;51.824;5.564;2023-05-03T00:17:31;102855.50;;;5.94;71.13
57990;BME280;58373;51.824;5.564;2023-05-03T00:19:57;102850.34;;;5.94;71.15
57990;BME280;58373;51.824;5.564;2023-05-03T00:22:23;102840.09;;;5.91;70.84
57990;BME280;58373;51.824;5.564;2023-05-03T00:24:49;102852.19;;;5.89;70.99
57990;BME280;58373;51.824;5.564;2023-05-03T00:27:15;102854.88;;;5.85;71.23
57990;BME280;58373;51.824;5.564;2023-05-03T00:29:40;102848.06;;;5.83;71.76
57990;BME280;58373;51.824;5.564;2023-05-03T00:32:06;102847.34;;;5.79;72.34
57990;BME280;58373;51.824;5.564;2023-05-03T00:34:31;102847.47;;;5.73;72.36
57990;BME280;58373;51.824;5.564;2023-05-03T00:36:57;102839.06;;;5.68;73.11
57990;BME280;58373;51.824;5.564;2023-05-03T00:39:22;102842.63;;;5.64;72.01
57990;BME280;58373;51.824;5.564;2023-05-03T00:41:47;102844.53;;;5.56;72.92
57990;BME280;58373;51.824;5.564;2023-05-03T00:44:13;102849.78;;;5.53;73.44
57990;BME280;58373;51.824;5.564;2023-05-03T00:46:39;102851.66;;;5.48;73.30
57990;BME280;58373;51.824;5.564;2023-05-03T00:49:04;102845.72;;;5.46;72.97
57990;BME280;58373;51.824;5.564;2023-05-03T00:51:30;102856.00;;;5.46;72.92
57990;BME280;58373;51.824;5.564;2023-05-03T00:53:55;102838.00;;;5.46;72.66
57990;BME280;58373;51.824;5.564;2023-05-03T00:56:21;102843.97;;;5.46;72.89
57990;BME280;58373;51.824;5.564;2023-05-03T00:58:47;102844.81;;;5.47;72.77
57990;BME280;58373;51.824;5.564;2023-05-03T01:01:12;102846.50;;;5.48;72.58
57990;BME280;58373;51.824;5.564;2023-05-03T01:03:39;102848.19;;;5.49;72.51
57990;BME280;58373;51.824;5.564;2023-05-03T01:06:18;102846.50;;;5.48;73.25
57990;BME280;58373;51.824;5.564;2023-05-03T01:08:53;102849.13;;;5.46;72.64
57990;BME280;58373;51.824;5.564;2023-05-03T01:11:22;102844.81;;;5.47;73.23
57990;BME280;58373;51.824;5.564;2023-05-03T01:13:51;102839.66;;;5.47;72.93
57990;BME280;58373;51.824;5.564;2023-05-03T01:16:35;102843.13;;;5.46;72.72
57990;BME280;58373;51.824;5.564;2023-05-03T01:19:04;102848.28;;;5.46;72.94
57990;BME280;58373;51.824;5.564;2023-05-03T01:21:31;102839.84;;;5.41;73.10
57990;BME280;58373;51.824;5.564;2023-05-03T01:26:23;102856.41;;;5.30;74.15
57990;BME280;58373;51.824;5.564;2023-05-03T01:28:49;102858.34;;;5.22;74.95
57990;BME280;58373;51.824;5.564;2023-05-03T01:31:28;102854.22;;;5.15;74.91
57990;BME280;58373;51.824;5.564;2023-05-03T01:36:26;102855.38;;;5.05;74.67
57990;BME280;58373;51.824;5.564;2023-05-03T01:38:52;102844.28;;;5.03;74.63
57990;BME280;58373;51.824;5.564;2023-05-03T01:41:18;102851.19;;;5.01;74.89
57990;BME280;58373;51.824;5.564;2023-05-03T01:43:44;102854.66;;;5.00;74.58
57990;BME280;58373;51.824;5.564;2023-05-03T01:46:10;102845.31;;;4.96;76.05
57990;BME280;58373;51.824;5.564;2023-05-03T01:48:35;102853.19;;;4.90;76.44
57990;BME280;58373;51.824;5.564;2023-05-03T01:51:00;102848.94;;;4.89;75.40
57990;BME280;58373;51.824;5.564;2023-05-03T01:53:26;102846.38;;;4.89;74.92
57990;BME280;58373;51.824;5.564;2023-05-03T01:55:51;102839.53;;;4.88;75.14
57990;BME280;58373;51.824;5.564;2023-05-03T01:58:16;102847.25;;;4.88;74.71
57990;BME280;58373;51.824;5.564;2023-05-03T02:00:43;102845.44;;;4.91;74.60
57990;BME280;58373;51.824;5.564;2023-05-03T02:03:09;102849.66;;;4.94;74.93
57990;BME280;58373;51.824;5.564;2023-05-03T02:05:34;102842.75;;;4.96;75.16
57990;BME280;58373;51.824;5.564;2023-05-03T02:07:59;102853.03;;;4.96;74.38
57990;BME280;58373;51.824;5.564;2023-05-03T02:10:24;102859.91;;;4.95;74.58
57990;BME280;58373;51.824;5.564;2023-05-03T02:12:50;102851.34;;;4.95;74.40
57990;BME280;58373;51.824;5.564;2023-05-03T02:15:15;102850.53;;;4.93;74.41
57990;BME280;58373;51.824;5.564;2023-05-03T02:17:43;102853.19;;;4.90;74.22
57990;BME280;58373;51.824;5.564;2023-05-03T02:20:11;102856.66;;;4.89;74.39
57990;BME280;58373;51.824;5.564;2023-05-03T02:22:36;102852.41;;;4.88;74.52
57990;BME280;58373;51.824;5.564;2023-05-03T02:25:01;102849.81;;;4.88;74.22
57990;BME280;58373;51.824;5.564;2023-05-03T02:27:27;102842.97;;;4.87;74.61
57990;BME280;58373;51.824;5.564;2023-05-03T02:29:52;102833.63;;;4.84;74.23
57990;BME280;58373;51.824;5.564;2023-05-03T02:32:17;102832.84;;;4.80;74.60
57990;BME280;58373;51.824;5.564;2023-05-03T02:34:43;102832.84;;;4.80;74.88
57990;BME280;58373;51.824;5.564;2023-05-03T02:37:08;102839.75;;;4.78;74.35
57990;BME280;58373;51.824;5.564;2023-05-03T02:39:34;102833.88;;;4.73;74.61
57990;BME280;58373;51.824;5.564;2023-05-03T02:41:59;102828.84;;;4.70;74.81
57990;BME280;58373;51.824;5.564;2023-05-03T02:44:24;102821.13;;;4.70;74.47
57990;BME280;58373;51.824;5.564;2023-05-03T02:46:49;102824.53;;;4.71;74.73
57990;BME280;58373;51.824;5.564;2023-05-03T02:49:15;102810.88;;;4.69;75.07
57990;BME280;58373;51.824;5.564;2023-05-03T02:51:40;102808.34;;;4.67;75.07
57990;BME280;58373;51.824;5.564;2023-05-03T02:54:05;102794.75;;;4.62;75.17
57990;BME280;58373;51.824;5.564;2023-05-03T02:56:30;102799.09;;;4.60;75.11
57990;BME280;58373;51.824;5.564;2023-05-03T02:58:57;102792.34;;;4.56;76.05
57990;BME280;58373;51.824;5.564;2023-05-03T03:01:22;102797.63;;;4.50;76.12
57990;BME280;58373;51.824;5.564;2023-05-03T03:03:47;102799.41;;;4.48;76.01
57990;BME280;58373;51.824;5.564;2023-05-03T03:06:12;102802.84;;;4.47;76.12
57990;BME280;58373;51.824;5.564;2023-05-03T03:08:38;102795.16;;;4.45;76.17
57990;BME280;58373;51.824;5.564;2023-05-03T03:11:03;102802.03;;;4.45;76.44
57990;BME280;58373;51.824;5.564;2023-05-03T03:13:29;102807.19;;;4.45;75.81
57990;BME280;58373;51.824;5.564;2023-05-03T03:15:54;102814.03;;;4.44;76.14
57990;BME280;58373;51.824;5.564;2023-05-03T03:18:19;102818.34;;;4.44;76.43
57990;BME280;58373;51.824;5.564;2023-05-03T03:20:45;102820.13;;;4.42;76.07
57990;BME280;58373;51.824;5.564;2023-05-03T03:23:10;102821.84;;;4.40;76.05
57990;BME280;58373;51.824;5.564;2023-05-03T03:25:35;102815.03;;;4.39;76.10
57990;BME280;58373;51.824;5.564;2023-05-03T03:28:00;102823.63;;;4.38;76.15
57990;BME280;58373;51.824;5.564;2023-05-03T03:30:26;102818.50;;;4.38;75.90
57990;BME280;58373;51.824;5.564;2023-05-03T03:32:51;102811.66;;;4.37;75.49
57990;BME280;58373;51.824;5.564;2023-05-03T03:35:16;102820.22;;;4.36;76.16
57990;BME280;58373;51.824;5.564;2023-05-03T03:37:42;102822.00;;;4.34;76.15
57990;BME280;58373;51.824;5.564;2023-05-03T03:40:07;102818.63;;;4.32;76.57
57990;BME280;58373;51.824;5.564;2023-05-03T03:42:33;102815.19;;;4.33;76.91
57990;BME280;58373;51.824;5.564;2023-05-03T03:44:58;102803.28;;;4.29;76.67
57990;BME280;58373;51.824;5.564;2023-05-03T03:47:23;102799.03;;;4.28;76.70
57990;BME280;58373;51.824;5.564;2023-05-03T03:49:48;102813.69;;;4.22;76.81
57990;BME280;58373;51.824;5.564;2023-05-03T03:52:13;102807.72;;;4.22;76.79
57990;BME280;58373;51.824;5.564;2023-05-03T03:54:39;102801.75;;;4.21;76.91
57990;BME280;58373;51.824;5.564;2023-05-03T03:57:04;102812.91;;;4.20;76.81
57990;BME280;58373;51.824;5.564;2023-05-03T03:59:29;102817.22;;;4.18;76.96
57990;BME280;58373;51.824;5.564;2023-05-03T04:01:54;102815.53;;;4.17;77.05
57990;BME280;58373;51.824;5.564;2023-05-03T04:04:20;102822.34;;;4.18;77.45
57990;BME280;58373;51.824;5.564;2023-05-03T04:06:45;102824.13;;;4.16;77.17
57990;BME280;58373;51.824;5.564;2023-05-03T04:09:10;102825.88;;;4.14;77.29
57990;BME280;58373;51.824;5.564;2023-05-03T04:11:36;102829.25;;;4.16;77.34
57990;BME280;58373;51.824;5.564;2023-05-03T04:14:01;102830.13;;;4.15;77.21
57990;BME280;58373;51.824;5.564;2023-05-03T04:16:27;102839.53;;;4.16;77.41
57990;BME280;58373;51.824;5.564;2023-05-03T04:18:52;102839.53;;;4.16;77.07
57990;BME280;58373;51.824;5.564;2023-05-03T04:21:17;102842.09;;;4.16;77.27
57990;BME280;58373;51.824;5.564;2023-05-03T04:23:43;102839.53;;;4.16;77.09
57990;BME280;58373;51.824;5.564;2023-05-03T04:26:09;102843.78;;;4.17;77.35
57990;BME280;58373;51.824;5.564;2023-05-03T04:28:34;102836.06;;;4.17;77.48
57990;BME280;58373;51.824;5.564;2023-05-03T04:30:59;102832.63;;;4.18;77.38
57990;BME280;58373;51.824;5.564;2023-05-03T04:33:24;102835.22;;;4.17;77.66
57990;BME280;58373;51.824;5.564;2023-05-03T04:35:50;102835.22;;;4.17;77.72
57990;BME280;58373;51.824;5.564;2023-05-03T04:38:16;102837.84;;;4.15;77.49
57990;BME280;58373;51.824;5.564;2023-05-03T04:40:43;102850.72;;;4.14;77.73
57990;BME280;58373;51.824;5.564;2023-05-03T04:43:08;102860.16;;;4.13;77.68
57990;BME280;58373;51.824;5.564;2023-05-03T04:45:33;102861.84;;;4.14;77.80
57990;BME280;58373;51.824;5.564;2023-05-03T04:47:59;102861.84;;;4.14;78.55
57990;BME280;58373;51.824;5.564;2023-05-03T04:50:24;102869.50;;;4.16;77.86
57990;BME280;58373;51.824;5.564;2023-05-03T04:52:50;102872.03;;;4.17;77.80
57990;BME280;58373;51.824;5.564;2023-05-03T04:55:15;102869.41;;;4.20;78.12
57990;BME280;58373;51.824;5.564;2023-05-03T04:57:41;102875.34;;;4.22;78.01
57990;BME280;58373;51.824;5.564;2023-05-03T05:00:06;102883.94;;;4.21;79.73
57990;BME280;58373;51.824;5.564;2023-05-03T05:02:35;102897.72;;;4.17;79.17
57990;BME280;58373;51.824;5.564;2023-05-03T05:05:00;102891.69;;;4.18;79.35
57990;BME280;58373;51.824;5.564;2023-05-03T05:07:25;102887.44;;;4.17;81.29
57990;BME280;58373;51.824;5.564;2023-05-03T05:09:50;102887.44;;;4.17;79.62
57990;BME280;58373;51.824;5.564;2023-05-03T05:12:16;102894.19;;;4.21;80.03
57990;BME280;58373;51.824;5.564;2023-05-03T05:14:41;102895.00;;;4.23;80.26
57990;BME280;58373;51.824;5.564;2023-05-03T05:17:06;102900.97;;;4.25;80.90
57990;BME280;58373;51.824;5.564;2023-05-03T05:19:32;102888.03;;;4.29;80.03
57990;BME280;58373;51.824;5.564;2023-05-03T05:21:57;102888.78;;;4.34;79.66
57990;BME280;58373;51.824;5.564;2023-05-03T05:24:22;102883.59;;;4.37;80.12
57990;BME280;58373;51.824;5.564;2023-05-03T05:26:47;102886.94;;;4.40;79.55
57990;BME280;58373;51.824;5.564;2023-05-03T05:29:13;102899.63;;;4.46;79.47
57990;BME280;58373;51.824;5.564;2023-05-03T05:31:38;102900.38;;;4.53;79.63
57990;BME280;58373;51.824;5.564;2023-05-03T05:34:04;102901.06;;;4.58;79.73
57990;BME280;58373;51.824;5.564;2023-05-03T05:36:29;102903.59;;;4.61;79.74
57990;BME280;58373;51.824;5.564;2023-05-03T05:38:54;102904.31;;;4.66;79.58
57990;BME280;58373;51.824;5.564;2023-05-03T05:41:20;102901.59;;;4.72;79.36
57990;BME280;58373;51.824;5.564;2023-05-03T05:43:45;102903.94;;;4.82;78.46
57990;BME280;58373;51.824;5.564;2023-05-03T05:46:10;102898.00;;;4.79;78.99
57990;BME280;58373;51.824;5.564;2023-05-03T05:48:35;102909.91;;;4.84;79.53
57990;BME280;58373;51.824;5.564;2023-05-03T05:51:01;102916.59;;;4.91;79.60
57990;BME280;58373;51.824;5.564;2023-05-03T05:53:26;102909.59;;;4.96;79.34
57990;BME280;58373;51.824;5.564;2023-05-03T05:55:52;102911.13;;;5.03;79.34
57990;BME280;58373;51.824;5.564;2023-05-03T05:58:17;102912.75;;;5.07;79.21
57990;BME280;58373;51.824;5.564;2023-05-03T06:00:43;102915.22;;;5.12;79.02
57990;BME280;58373;51.824;5.564;2023-05-03T06:03:09;102920.22;;;5.18;79.05
57990;BME280;58373;51.824;5.564;2023-05-03T06:05:34;102912.44;;;5.19;78.97
57990;BME280;58373;51.824;5.564;2023-05-03T06:07:59;102914.84;;;5.25;79.06
57990;BME280;58373;51.824;5.564;2023-05-03T06:10:24;102911.22;;;5.32;78.20
57990;BME280;58373;51.824;5.564;2023-05-03T06:12:50;102905.13;;;5.37;78.66
57990;BME280;58373;51.824;5.564;2023-05-03T06:15:15;102899.69;;;5.47;78.37
57990;BME280;58373;51.824;5.564;2023-05-03T06:17:40;102902.22;;;5.49;78.96
57990;BME280;58373;51.824;5.564;2023-05-03T06:20:06;102905.47;;;5.55;78.58
57990;BME280;58373;51.824;5.564;2023-05-03T06:22:35;102906.19;;;5.62;78.42
57990;BME280;58373;51.824;5.564;2023-05-03T06:25:00;102901.78;;;5.66;78.36
57990;BME280;58373;51.824;5.564;2023-05-03T06:27:26;102893.81;;;5.75;78.73
57990;BME280;58373;51.824;5.564;2023-05-03T06:29:51;102897.03;;;5.81;78.68
57990;BME280;58373;51.824;5.564;2023-05-03T06:32:17;102901.88;;;5.94;77.48
57990;BME280;58373;51.824;5.564;2023-05-03T06:34:42;102889.94;;;5.90;78.15
57990;BME280;58373;51.824;5.564;2023-05-03T06:37:08;102893.06;;;6.01;77.88
57990;BME280;58373;51.824;5.564;2023-05-03T06:39:33;102892.03;;;6.06;77.48
57990;BME280;58373;51.824;5.564;2023-05-03T06:41:58;102893.47;;;6.17;77.64
57990;BME280;58373;51.824;5.564;2023-05-03T06:44:24;102882.06;;;6.25;78.37
57990;BME280;58373;51.824;5.564;2023-05-03T06:46:49;102886.19;;;6.31;76.69
57990;BME280;58373;51.824;5.564;2023-05-03T06:49:15;102887.63;;;6.39;77.65
57990;BME280;58373;51.824;5.564;2023-05-03T06:51:40;102881.38;;;6.47;76.53
57990;BME280;58373;51.824;5.564;2023-05-03T06:54:05;102880.97;;;6.59;76.50
57990;BME280;58373;51.824;5.564;2023-05-03T06:56:32;102886.13;;;6.59;76.26
57990;BME280;58373;51.824;5.564;2023-05-03T06:59:00;102882.63;;;6.61;75.64
57990;BME280;58373;51.824;5.564;2023-05-03T07:01:26;102887.53;;;6.69;76.30
57990;BME280;58373;51.824;5.564;2023-05-03T07:03:51;102886.41;;;6.78;76.23
57990;BME280;58373;51.824;5.564;2023-05-03T07:06:16;102896.31;;;6.90;74.69
57990;BME280;58373;51.824;5.564;2023-05-03T07:08:42;102886.84;;;6.90;74.26
57990;BME280;58373;51.824;5.564;2023-05-03T07:11:07;102888.22;;;7.01;74.54
57990;BME280;58373;51.824;5.564;2023-05-03T07:13:33;102894.09;;;7.06;74.29
57990;BME280;58373;51.824;5.564;2023-05-03T07:15:59;102884.31;;;7.14;73.58
57990;BME280;58373;51.824;5.564;2023-05-03T07:18:24;102893.31;;;7.27;73.37
57990;BME280;58373;51.824;5.564;2023-05-03T07:20:49;102887.91;;;7.35;72.13
57990;BME280;58373;51.824;5.564;2023-05-03T07:23:15;102887.84;;;7.36;73.08
57990;BME280;58373;51.824;5.564;2023-05-03T07:25:40;102891.81;;;7.47;71.74
57990;BME280;58373;51.824;5.564;2023-05-03T07:28:06;102883.78;;;7.54;71.91
57990;BME280;58373;51.824;5.564;2023-05-03T07:30:31;102884.41;;;7.61;71.21
57990;BME280;58373;51.824;5.564;2023-05-03T07:32:56;102874.66;;;7.69;71.71
57990;BME280;58373;51.824;5.564;2023-05-03T07:35:21;102871.59;;;7.81;71.35
57990;BME280;58373;51.824;5.564;2023-05-03T07:37:47;102873.66;;;7.95;70.66
57990;BME280;58373;51.824;5.564;2023-05-03T07:40:12;102876.19;;;7.96;68.61
57990;BME280;58373;51.824;5.564;2023-05-03T07:42:37;102869.09;;;8.02;69.18
57990;BME280;58373;51.824;5.564;2023-05-03T07:45:03;102865.03;;;8.18;69.20
57990;BME280;58373;51.824;5.564;2023-05-03T07:47:28;102853.84;;;8.17;68.08
57990;BME280;58373;51.824;5.564;2023-05-03T07:49:53;102843.44;;;8.19;66.74
57990;BME280;58373;51.824;5.564;2023-05-03T07:52:19;102846.34;;;8.33;66.28
57990;BME280;58373;51.824;5.564;2023-05-03T07:54:44;102844.00;;;8.27;65.51
57990;BME280;58373;51.824;5.564;2023-05-03T07:57:15;102843.59;;;8.38;66.18
57990;BME280;58373;51.824;5.564;2023-05-03T07:59:43;102841.88;;;8.38;64.75
57990;BME280;58373;51.824;5.564;2023-05-03T08:02:08;102840.78;;;8.44;66.13
57990;BME280;58373;51.824;5.564;2023-05-03T08:04:34;102835.38;;;8.48;66.26
57990;BME280;58373;51.824;5.564;2023-05-03T08:07:02;102835.34;;;8.50;65.50
57990;BME280;58373;51.824;5.564;2023-05-03T08:09:28;102824.69;;;8.58;64.32
57990;BME280;58373;51.824;5.564;2023-05-03T08:11:54;102834.66;;;8.67;64.70
57990;BME280;58373;51.824;5.564;2023-05-03T08:14:20;102820.94;;;8.65;64.83
57990;BME280;58373;51.824;5.564;2023-05-03T08:16:45;102831.63;;;8.77;65.16
57990;BME280;58373;51.824;5.564;2023-05-03T08:19:10;102831.41;;;8.82;65.49
57990;BME280;58373;51.824;5.564;2023-05-03T08:21:35;102838.03;;;8.89;65.41
57990;BME280;58373;51.824;5.564;2023-05-03T08:24:01;102825.34;;;9.03;64.54
57990;BME280;58373;51.824;5.564;2023-05-03T08:26:26;102840.88;;;9.03;64.91
57990;BME280;58373;51.824;5.564;2023-05-03T08:28:52;102825.81;;;9.12;64.35
57990;BME280;58373;51.824;5.564;2023-05-03T08:31:18;102824.25;;;9.28;63.67
57990;BME280;58373;51.824;5.564;2023-05-03T08:33:43;102832.94;;;9.27;62.99
57990;BME280;58373;51.824;5.564;2023-05-03T08:36:08;102824.25;;;9.28;63.06
57990;BME280;58373;51.824;5.564;2023-05-03T08:38:33;102836.16;;;9.32;62.60
57990;BME280;58373;51.824;5.564;2023-05-03T08:41:02;102824.69;;;9.38;62.75
57990;BME280;58373;51.824;5.564;2023-05-03T08:43:31;102817.97;;;9.34;63.18
57990;BME280;58373;51.824;5.564;2023-05-03T08:46:00;102807.97;;;9.45;62.81
57990;BME280;58373;51.824;5.564;2023-05-03T08:48:25;102812.66;;;9.55;63.19
57990;BME280;58373;51.824;5.564;2023-05-03T08:50:50;102802.03;;;9.62;62.99
57990;BME280;58373;51.824;5.564;2023-05-03T08:53:17;102807.44;;;9.76;63.23
57990;BME280;58373;51.824;5.564;2023-05-03T08:55:43;102810.81;;;9.95;61.64
57990;BME280;58373;51.824;5.564;2023-05-03T08:58:08;102797.09;;;9.93;62.07
57990;BME280;58373;51.824;5.564;2023-05-03T09:00:36;102806.69;;;9.91;62.07
57990;BME280;58373;51.824;5.564;2023-05-03T09:03:02;102819.53;;;9.94;61.49
57990;BME280;58373;51.824;5.564;2023-05-03T09:05:31;102818.53;;;9.97;62.39
57990;BME280;58373;51.824;5.564;2023-05-03T09:08:07;102826.25;;;9.98;62.04
57990;BME280;58373;51.824;5.564;2023-05-03T09:10:35;102828.47;;;10.06;63.17
57990;BME280;58373;51.824;5.564;2023-05-03T09:13:01;102831.38;;;10.17;62.92
57990;BME280;58373;51.824;5.564;2023-05-03T09:15:30;102838.53;;;10.31;62.41
57990;BME280;58373;51.824;5.564;2023-05-03T09:18:08;102835.31;;;10.26;60.87
57990;BME280;58373;51.824;5.564;2023-05-03T09:20:34;102835.19;;;10.29;61.58
57990;BME280;58373;51.824;5.564;2023-05-03T09:23:00;102833.00;;;10.39;61.94
57990;BME280;58373;51.824;5.564;2023-05-03T09:25:38;102833.75;;;10.41;59.96
57990;BME280;58373;51.824;5.564;2023-05-03T09:28:03;102829.09;;;10.47;60.18
57990;BME280;58373;51.824;5.564;2023-05-03T09:30:28;102824.06;;;10.44;59.40
57990;BME280;58373;51.824;5.564;2023-05-03T09:32:54;102822.06;;;10.49;60.61
57990;BME280;58373;51.824;5.564;2023-05-03T09:35:19;102814.59;;;10.60;60.49
57990;BME280;58373;51.824;5.564;2023-05-03T09:37:44;102818.88;;;10.79;59.69
57990;BME280;58373;51.824;5.564;2023-05-03T09:40:10;102833.84;;;10.74;59.60
57990;BME280;58373;51.824;5.564;2023-05-03T09:42:36;102827.84;;;10.89;59.59
57990;BME280;58373;51.824;5.564;2023-05-03T09:45:02;102823.50;;;11.07;58.71
57990;BME280;58373;51.824;5.564;2023-05-03T09:47:27;102825.72;;;10.97;58.62
57990;BME280;58373;51.824;5.564;2023-05-03T09:49:52;102811.97;;;10.95;58.61
57990;BME280;58373;51.824;5.564;2023-05-03T09:52:17;102826.94;;;11.07;58.62
57990;BME280;58373;51.824;5.564;2023-05-03T09:54:43;102820.97;;;11.05;58.79
57990;BME280;58373;51.824;5.564;2023-05-03T09:57:09;102825.09;;;11.09;58.61
57990;BME280;58373;51.824;5.564;2023-05-03T09:59:37;102823.84;;;11.16;56.90
57990;BME280;58373;51.824;5.564;2023-05-03T10:02:03;102827.03;;;11.22;58.77
57990;BME280;58373;51.824;5.564;2023-05-03T10:04:42;102824.22;;;11.26;57.92
57990;BME280;58373;51.824;5.564;2023-05-03T10:07:08;102824.72;;;11.33;58.78
57990;BME280;58373;51.824;5.564;2023-05-03T10:09:42;102831.72;;;11.48;57.68
57990;BME280;58373;51.824;5.564;2023-05-03T10:12:08;102823.72;;;11.51;57.15
57990;BME280;58373;51.824;5.564;2023-05-03T10:14:34;102826.84;;;11.58;58.93
57990;BME280;58373;51.824;5.564;2023-05-03T10:17:03;102827.78;;;11.73;55.76
57990;BME280;58373;51.824;5.564;2023-05-03T10:24:28;102826.00;;;11.57;55.64
57990;BME280;58373;51.824;5.564;2023-05-03T10:26:54;102823.50;;;11.56;56.11
57990;BME280;58373;51.824;5.564;2023-05-03T10:31:57;102824.44;;;11.70;56.81
57990;BME280;58373;51.824;5.564;2023-05-03T10:34:23;102815.19;;;11.81;55.71
57990;BME280;58373;51.824;5.564;2023-05-03T10:36:49;102815.06;;;11.84;56.16
57990;BME280;58373;51.824;5.564;2023-05-03T10:39:17;102827.88;;;11.87;53.56
57990;BME280;58373;51.824;5.564;2023-05-03T10:41:43;102813.06;;;11.89;54.12
57990;BME280;58373;51.824;5.564;2023-05-03T10:44:24;102807.50;;;11.95;55.97
57990;BME280;58373;51.824;5.564;2023-05-03T10:46:50;102804.97;;;12.09;56.92
57990;BME280;58373;51.824;5.564;2023-05-03T10:49:18;102810.81;;;12.29;54.46
57990;BME280;58373;51.824;5.564;2023-05-03T10:51:44;102804.59;;;12.31;55.27
57990;BME280;58373;51.824;5.564;2023-05-03T10:54:09;102803.59;;;12.34;54.71
57990;BME280;58373;51.824;5.564;2023-05-03T10:56:46;102817.50;;;12.33;54.12
57990;BME280;58373;51.824;5.564;2023-05-03T10:59:11;102805.44;;;12.32;52.96
57990;BME280;58373;51.824;5.564;2023-05-03T11:01:36;102804.91;;;12.41;53.92
57990;BME280;58373;51.824;5.564;2023-05-03T11:04:12;102804.56;;;12.47;52.90
57990;BME280;58373;51.824;5.564;2023-05-03T11:06:39;102801.00;;;12.48;54.63
57990;BME280;58373;51.824;5.564;2023-05-03T11:09:09;102784.88;;;12.57;53.93
57990;BME280;58373;51.824;5.564;2023-05-03T11:11:38;102784.16;;;12.69;54.79
57990;BME280;58373;51.824;5.564;2023-05-03T11:14:04;102786.75;;;12.84;54.19
57990;BME280;58373;51.824;5.564;2023-05-03T11:16:29;102781.00;;;12.93;54.24
57990;BME280;58373;51.824;5.564;2023-05-03T11:18:55;102783.41;;;12.96;52.27
57990;BME280;58373;51.824;5.564;2023-05-03T11:21:20;102775.59;;;12.96;52.20
57990;BME280;58373;51.824;5.564;2023-05-03T11:23:46;102772.63;;;12.88;52.93
57990;BME280;58373;51.824;5.564;2023-05-03T11:26:12;102775.59;;;12.96;53.19
57990;BME280;58373;51.824;5.564;2023-05-03T11:28:37;102767.78;;;13.10;53.27
57990;BME280;58373;51.824;5.564;2023-05-03T11:31:03;102771.91;;;13.28;53.16
57990;BME280;58373;51.824;5.564;2023-05-03T11:33:30;102768.19;;;13.33;52.28
57990;BME280;58373;51.824;5.564;2023-05-03T11:35:55;102767.22;;;13.34;51.69
57990;BME280;58373;51.824;5.564;2023-05-03T11:38:21;102757.38;;;13.39;52.95
57990;BME280;58373;51.824;5.564;2023-05-03T11:40:46;102750.81;;;13.46;51.70
57990;BME280;58373;51.824;5.564;2023-05-03T11:43:11;102751.75;;;13.45;50.60
57990;BME280;58373;51.824;5.564;2023-05-03T11:45:42;102748.97;;;13.48;51.29
57990;BME280;58373;51.824;5.564;2023-05-03T11:48:08;102748.59;;;13.54;51.93
57990;BME280;58373;51.824;5.564;2023-05-03T11:53:15;102737.94;;;13.57;51.09
57990;BME280;58373;51.824;5.564;2023-05-03T11:55:41;102738.88;;;13.56;50.85
57990;BME280;58373;51.824;5.564;2023-05-03T11:58:14;102742.78;;;13.63;52.02
57990;BME280;58373;51.824;5.564;2023-05-03T12:00:45;102744.03;;;13.70;51.11
57990;BME280;58373;51.824;5.564;2023-05-03T12:03:21;102744.41;;;13.78;50.81
57990;BME280;58373;51.824;5.564;2023-05-03T12:05:47;102729.59;;;13.79;48.08
57990;BME280;58373;51.824;5.564;2023-05-03T12:08:13;102735.59;;;13.67;50.56
57990;BME280;58373;51.824;5.564;2023-05-03T12:10:39;102727.00;;;13.65;49.64
57990;BME280;58373;51.824;5.564;2023-05-03T12:13:05;102731.22;;;13.67;51.11
57990;BME280;58373;51.824;5.564;2023-05-03T12:15:31;102724.66;;;13.74;51.17
57990;BME280;58373;51.824;5.564;2023-05-03T12:17:58;102717.53;;;13.91;51.20
57990;BME280;58373;51.824;5.564;2023-05-03T12:20:24;102719.63;;;13.98;50.33
57990;BME280;58373;51.824;5.564;2023-05-03T12:22:50;102704.78;;;13.86;50.05
57990;BME280;58373;51.824;5.564;2023-05-03T12:25:16;102710.81;;;13.87;50.24
57990;BME280;58373;51.824;5.564;2023-05-03T12:27:41;102694.34;;;13.99;50.30
57990;BME280;58373;51.824;5.564;2023-05-03T12:30:06;102709.28;;;13.97;47.90
57990;BME280;58373;51.824;5.564;2023-05-03T12:32:34;102695.78;;;13.77;49.62
57990;BME280;58373;51.824;5.564;2023-05-03T12:34:59;102698.94;;;13.82;48.31
57990;BME280;58373;51.824;5.564;2023-05-03T12:37:24;102688.50;;;13.82;49.08
57990;BME280;58373;51.824;5.564;2023-05-03T12:39:49;102682.47;;;13.82;49.50
57990;BME280;58373;51.824;5.564;2023-05-03T12:42:15;102681.41;;;13.85;49.46
57990;BME280;58373;51.824;5.564;2023-05-03T12:44:40;102678.19;;;13.94;50.35
57990;BME280;58373;51.824;5.564;2023-05-03T12:47:06;102669.75;;;14.03;49.93
57990;BME280;58373;51.824;5.564;2023-05-03T12:49:31;102665.59;;;14.13;49.25
57990;BME280;58373;51.824;5.564;2023-05-03T12:51:56;102668.50;;;14.21;48.13
57990;BME280;58373;51.824;5.564;2023-05-03T12:54:24;102665.38;;;14.16;47.92
57990;BME280;58373;51.824;5.564;2023-05-03T12:56:49;102672.28;;;14.17;47.15
57990;BME280;58373;51.824;5.564;2023-05-03T12:59:15;102663.50;;;14.05;47.59
57990;BME280;58373;51.824;5.564;2023-05-03T13:01:40;102656.50;;;14.06;48.50
57990;BME280;58373;51.824;5.564;2023-05-03T13:04:06;102648.25;;;14.12;47.15
57990;BME280;58373;51.824;5.564;2023-05-03T13:06:31;102650.34;;;14.07;48.07